createdAt,value
2019-04-20T00:01:16.804Z,6.77
2019-04-20T00:04:34.254Z,5.30
2019-04-20T00:07:06.049Z,4.20
2019-04-20T00:09:41.451Z,4.07
2019-04-20T00:12:25.427Z,4.77
2019-04-20T00:14:52.083Z,4.37
2019-04-20T00:17:30.538Z,4.27
2019-04-20T00:20:09.286Z,3.30
2019-04-20T00:22:49.333Z,3.23
2019-04-20T00:25:47.199Z,3.50
2019-04-20T00:28:33.744Z,3.10
2019-04-20T00:33:51.616Z,5.20
2019-04-20T00:36:12.283Z,4.87
2019-04-20T00:38:50.949Z,3.23
2019-04-20T00:41:18.900Z,3.67
2019-04-20T00:43:49.630Z,3.53
2019-04-20T00:47:00.806Z,4.43
2019-04-20T00:49:38.883Z,3.23
2019-04-20T00:52:54.355Z,4.97
2019-04-20T00:55:15.310Z,2.83
2019-04-20T00:57:54.853Z,2.63
2019-04-20T01:00:40.553Z,3.73
2019-04-20T01:03:15.799Z,3.07
2019-04-20T01:05:58.426Z,2.77
2019-04-20T01:08:12.911Z,3.63
2019-04-20T01:10:49.115Z,3.00
2019-04-20T01:13:20.080Z,2.33
2019-04-20T01:15:55.172Z,2.90
2019-04-20T01:18:23.165Z,3.03
2019-04-20T01:23:07.468Z,4.13
2019-04-20T01:23:40.176Z,4.23
2019-04-20T01:26:11.531Z,3.30
2019-04-20T01:29:01.600Z,3.27
2019-04-20T01:34:26.957Z,4.70
2019-04-20T01:39:44.261Z,5.90
2019-04-20T01:42:13.114Z,4.47
2019-04-20T01:44:50.789Z,3.70
2019-04-20T01:47:19.078Z,2.73
2019-04-20T01:49:59.850Z,4.20
2019-04-20T01:55:56.653Z,3.73
2019-04-20T01:58:25.559Z,4.67
2019-04-20T02:00:45.988Z,3.37
2019-04-20T02:06:39.869Z,6.10
2019-04-20T02:09:14.166Z,4.50
2019-04-20T02:11:44.703Z,4.93
2019-04-20T02:14:24.256Z,3.83
2019-04-20T02:16:58.384Z,3.90
2019-04-20T02:22:56.959Z,3.60
2019-04-20T02:34:59.725Z,4.83
2019-04-20T02:38:46.632Z,5.23
2019-04-20T02:41:11.745Z,4.00
2019-04-20T02:43:46.911Z,7.97
2019-04-20T02:50:25.830Z,4.43
2019-04-20T02:53:04.885Z,4.27
2019-04-20T02:55:31.242Z,4.67
2019-04-20T03:00:39.647Z,5.90
2019-04-20T03:11:05.845Z,4.67
2019-04-20T03:13:34.904Z,5.07
2019-04-20T03:16:50.283Z,4.80
2019-04-20T03:19:41.148Z,4.60
2019-04-20T03:23:17.282Z,4.67
2019-04-20T03:24:53.974Z,4.73
2019-04-20T03:27:30.835Z,6.23
2019-04-20T03:36:20.020Z,4.50
2019-04-20T03:38:41.349Z,7.53
2019-04-20T03:41:12.078Z,4.50
2019-04-20T03:44:57.077Z,5.50
2019-04-20T03:47:00.677Z,4.43
2019-04-20T03:52:43.673Z,6.27
2019-04-20T03:58:33.457Z,5.97
2019-04-20T04:04:05.238Z,6.60
2019-04-20T04:09:30.442Z,6.20
2019-04-20T04:12:01.205Z,6.27
2019-04-20T04:14:30.582Z,8.50
2019-04-20T04:17:20.992Z,5.43
2019-04-20T04:20:33.039Z,6.50
2019-04-20T04:23:15.092Z,6.03
2019-04-20T04:28:27.599Z,5.17
2019-04-20T04:31:05.166Z,6.07
2019-04-20T04:34:02.684Z,5.33
2019-04-20T04:36:38.704Z,6.97
2019-04-20T04:42:16.936Z,5.50
2019-04-20T04:44:39.973Z,6.20
2019-04-20T04:47:42.838Z,6.50
2019-04-20T04:50:17.623Z,4.83
2019-04-20T04:55:47.759Z,6.10
2019-04-20T04:58:12.489Z,5.60
2019-04-20T05:00:51.508Z,6.80
2019-04-20T05:03:44.861Z,7.13
2019-04-20T05:06:53.546Z,9.03
2019-04-20T05:09:16.732Z,5.67
2019-04-20T05:12:17.170Z,6.93
2019-04-20T05:14:58.122Z,6.07
2019-04-20T05:20:29.274Z,5.10
2019-04-20T05:23:07.672Z,6.37
2019-04-20T05:25:44.816Z,6.50
2019-04-20T05:28:17.659Z,8.00
2019-04-20T05:30:45.726Z,6.47
2019-04-20T05:33:25.533Z,6.63
2019-04-20T05:36:06.582Z,6.37
2019-04-20T05:39:02.561Z,5.67
2019-04-20T05:41:40.674Z,6.60
2019-04-20T05:44:16.984Z,5.50
2019-04-20T05:49:34.779Z,5.80
2019-04-20T05:52:31.679Z,5.60
2019-04-20T05:55:38.500Z,6.70
2019-04-20T05:58:17.856Z,6.47
2019-04-20T06:03:37.157Z,6.67
2019-04-20T06:06:15.214Z,5.93
2019-04-20T06:08:53.767Z,6.47
2019-04-20T06:11:25.571Z,7.90
2019-04-20T06:15:00.345Z,7.33
2019-04-20T06:17:52.736Z,6.90
2019-04-20T06:23:47.492Z,7.17
2019-04-20T06:28:49.896Z,7.93
2019-04-20T06:31:29.993Z,6.73
2019-04-20T06:37:02.014Z,6.20
2019-04-20T06:40:24.274Z,5.73
2019-04-20T06:42:48.176Z,8.53
2019-04-20T06:48:31.057Z,8.40
2019-04-20T06:53:48.688Z,5.80
2019-04-20T06:56:29.821Z,7.53
2019-04-20T06:59:12.237Z,7.83
2019-04-20T07:01:52.979Z,7.33
2019-04-20T07:07:27.721Z,7.43
2019-04-20T07:16:15.831Z,8.37
2019-04-20T07:23:20.224Z,8.77
2019-04-20T07:25:44.652Z,9.77
2019-04-20T07:28:15.660Z,8.13
2019-04-20T07:30:49.161Z,9.17
2019-04-20T07:33:21.707Z,7.00
2019-04-20T07:35:56.005Z,6.83
2019-04-20T07:38:38.085Z,8.10
2019-04-20T07:42:03.062Z,7.30
2019-04-20T07:44:35.706Z,6.87
2019-04-20T07:47:38.634Z,7.37
2019-04-20T07:49:45.657Z,5.57
2019-04-20T07:52:02.181Z,5.83
2019-04-20T07:57:53.717Z,6.50
2019-04-20T08:00:48.485Z,8.83
2019-04-20T08:03:33.635Z,7.97
2019-04-20T08:05:57.233Z,6.73
2019-04-20T08:09:08.216Z,6.63
2019-04-20T08:11:56.679Z,5.60
2019-04-20T08:14:25.901Z,9.37
2019-04-20T08:17:16.262Z,7.53
2019-04-20T08:19:42.430Z,7.13
2019-04-20T08:22:15.513Z,5.73
2019-04-20T08:24:37.752Z,7.57
2019-04-20T08:27:04.770Z,7.70
2019-04-20T08:33:14.539Z,5.77
2019-04-20T08:36:33.152Z,6.50
2019-04-20T08:42:22.536Z,9.17
2019-04-20T08:45:04.039Z,6.70
2019-04-20T08:47:44.731Z,9.27
2019-04-20T08:50:20.856Z,6.27
2019-04-20T08:53:42.682Z,5.80
2019-04-20T08:56:18.519Z,7.30
2019-04-20T08:59:11.677Z,7.57
2019-04-20T09:01:44.629Z,8.30
2019-04-20T09:07:15.270Z,7.97
2019-04-20T09:10:08.187Z,7.67
2019-04-20T09:12:57.385Z,9.33
2019-04-20T09:15:14.664Z,5.73
2019-04-20T09:17:54.112Z,6.93
2019-04-20T09:20:31.768Z,7.60
2019-04-20T09:23:15.697Z,6.70
2019-04-20T09:28:27.197Z,7.97
2019-04-20T09:31:40.838Z,7.50
2019-04-20T09:34:20.549Z,6.80
2019-04-20T09:37:43.136Z,7.27
2019-04-20T09:40:32.174Z,6.53
2019-04-20T09:43:08.933Z,8.20
2019-04-20T09:45:55.040Z,7.13
2019-04-20T09:51:40.390Z,6.83
2019-04-20T09:54:53.035Z,7.30
2019-04-20T09:57:31.680Z,5.80
2019-04-20T10:00:41.192Z,7.03
2019-04-20T10:03:04.349Z,6.50
2019-04-20T10:06:23.021Z,7.07
2019-04-20T10:09:00.024Z,6.97
2019-04-20T10:12:03.614Z,5.53
2019-04-20T10:14:36.023Z,5.67
2019-04-20T10:24:02.911Z,5.60
2019-04-20T10:26:36.633Z,6.43
2019-04-20T10:29:17.446Z,5.97
2019-04-20T10:32:10.224Z,6.53
2019-04-20T10:35:18.555Z,4.90
2019-04-20T10:38:11.512Z,5.87
2019-04-20T10:41:13.966Z,4.30
2019-04-20T10:43:41.263Z,5.63
2019-04-20T10:46:53.357Z,5.50
2019-04-20T10:49:24.978Z,5.70
2019-04-20T10:52:27.840Z,5.27
2019-04-20T10:55:02.882Z,4.30
2019-04-20T10:58:07.671Z,5.47
2019-04-20T11:00:46.351Z,7.40
2019-04-20T11:03:18.138Z,5.20
2019-04-20T11:06:02.592Z,5.83
2019-04-20T11:08:36.460Z,4.77
2019-04-20T11:11:15.814Z,5.77
2019-04-20T11:13:45.524Z,4.53
2019-04-20T11:16:16.359Z,7.80
2019-04-20T11:18:47.299Z,5.67
2019-04-20T11:21:56.623Z,5.60
2019-04-20T11:24:44.480Z,5.90
2019-04-20T11:27:14.252Z,4.50
2019-04-20T11:29:44.457Z,4.97
2019-04-20T11:32:18.050Z,5.37
2019-04-20T11:34:53.279Z,7.17
2019-04-20T11:37:24.773Z,5.87
2019-04-20T11:39:55.404Z,4.87
2019-04-20T11:42:25.724Z,5.53
2019-04-20T11:45:00.424Z,4.73
2019-04-20T11:47:43.283Z,4.67
2019-04-20T11:51:05.521Z,5.77
2019-04-20T11:53:44.085Z,8.87
2019-04-20T11:57:04.548Z,5.97
2019-04-20T11:59:55.004Z,6.07
2019-04-20T12:03:25.993Z,5.97
2019-04-20T12:05:53.737Z,5.03
2019-04-20T12:09:24.609Z,5.47
2019-04-20T12:12:11.024Z,5.47
2019-04-20T12:15:19.259Z,4.73
2019-04-20T12:17:55.576Z,5.93
2019-04-20T12:20:58.787Z,5.27
2019-04-20T12:23:28.529Z,6.57
2019-04-20T12:28:52.171Z,5.87
2019-04-20T12:31:31.515Z,7.13
2019-04-20T12:34:33.538Z,8.90
2019-04-20T12:37:09.065Z,5.27
2019-04-20T12:40:35.414Z,6.47
2019-04-20T12:43:25.810Z,5.17
2019-04-20T12:46:39.604Z,5.47
2019-04-20T12:49:13.579Z,8.73
2019-04-20T12:51:53.987Z,7.80
2019-04-20T12:54:22.686Z,4.93
2019-04-20T12:57:02.517Z,5.70
2019-04-20T12:59:52.119Z,5.90
2019-04-20T13:02:55.645Z,5.43
2019-04-20T13:05:29.708Z,6.00
2019-04-20T13:08:55.535Z,7.03
2019-04-20T13:11:28.740Z,5.60
2019-04-20T13:14:56.366Z,5.73
2019-04-20T13:17:34.510Z,5.80
2019-04-20T13:20:41.862Z,7.03
2019-04-20T13:23:22.491Z,6.50
2019-04-20T13:28:49.101Z,5.50
2019-04-20T13:35:04.423Z,5.30
2019-04-20T13:38:12.033Z,5.63
2019-04-20T13:40:46.497Z,5.20
2019-04-20T13:50:26.317Z,7.13
2019-04-20T13:53:11.577Z,5.50
2019-04-20T13:56:21.752Z,5.77
2019-04-20T13:58:53.914Z,5.03
2019-04-20T14:02:17.552Z,5.83
2019-04-20T14:04:57.249Z,5.53
2019-04-20T14:08:03.209Z,4.50
2019-04-20T14:10:35.788Z,5.80
2019-04-20T14:13:53.597Z,5.33
2019-04-20T14:16:23.114Z,5.50
2019-04-20T14:19:32.403Z,4.90
2019-04-20T14:22:02.221Z,5.63
2019-04-20T14:25:13.563Z,5.10
2019-04-20T14:27:47.146Z,4.60
2019-04-20T14:30:41.422Z,5.83
2019-04-20T14:33:16.899Z,6.80
2019-04-20T14:36:26.537Z,5.73
2019-04-20T14:39:00.427Z,4.80
2019-04-20T14:42:24.272Z,5.60
2019-04-20T14:44:47.937Z,4.90
2019-04-20T14:48:11.927Z,7.53
2019-04-20T14:50:43.442Z,6.13
2019-04-20T14:54:09.656Z,4.73
2019-04-20T14:56:37.787Z,4.30
2019-04-20T14:59:55.910Z,4.57
2019-04-20T15:02:36.311Z,5.83
2019-04-20T15:05:55.649Z,4.23
2019-04-20T15:08:34.463Z,6.53
2019-04-20T15:11:38.266Z,4.93
2019-04-20T15:14:09.044Z,4.67
2019-04-20T15:19:36.992Z,4.30
2019-04-20T15:25:07.594Z,4.67
2019-04-20T15:28:14.444Z,6.20
2019-04-20T15:30:54.182Z,6.17
2019-04-20T15:33:48.860Z,4.70
2019-04-20T15:36:26.285Z,5.23
2019-04-20T15:39:43.395Z,5.70
2019-04-20T15:42:17.024Z,4.40
2019-04-20T15:44:47.271Z,6.13
2019-04-20T15:47:17.409Z,5.53
2019-04-20T15:49:55.990Z,4.77
2019-04-20T15:52:39.897Z,5.57
2019-04-20T16:01:57.452Z,4.43
2019-04-20T16:04:36.112Z,8.97
2019-04-20T16:07:59.814Z,4.80
2019-04-20T16:10:29.142Z,6.60
2019-04-20T16:15:53.771Z,4.70
2019-04-20T16:19:29.179Z,4.47
2019-04-20T16:21:54.471Z,5.07
2019-04-20T16:27:36.047Z,5.57
2019-04-20T16:33:08.341Z,5.43
2019-04-20T16:35:38.896Z,5.10
2019-04-20T16:38:44.040Z,5.17
2019-04-20T16:41:15.355Z,5.17
2019-04-20T16:44:27.210Z,5.73
2019-04-20T16:47:10.151Z,5.87
2019-04-20T16:50:31.089Z,4.90
2019-04-20T16:53:11.298Z,8.43
2019-04-20T16:55:48.399Z,5.23
2019-04-20T16:58:17.828Z,5.00
2019-04-20T17:00:53.777Z,7.93
2019-04-20T17:03:38.955Z,4.37
2019-04-20T17:05:56.326Z,5.63
2019-04-20T17:09:19.502Z,4.37
2019-04-20T17:11:53.944Z,7.57
2019-04-20T17:14:58.104Z,5.60
2019-04-20T17:17:34.224Z,7.30
2019-04-20T17:20:38.856Z,6.27
2019-04-20T17:23:21.076Z,6.43
2019-04-20T17:26:36.741Z,6.50
2019-04-20T17:29:08.147Z,6.53
2019-04-20T17:32:17.479Z,7.60
2019-04-20T17:35:01.786Z,7.27
2019-04-20T17:38:00.442Z,8.57
2019-04-20T17:40:59.890Z,6.77
2019-04-20T17:43:25.401Z,7.37
2019-04-20T17:45:58.201Z,7.63
2019-04-20T17:48:33.291Z,7.13
2019-04-20T17:58:01.675Z,6.00
2019-04-20T18:00:47.922Z,6.10
2019-04-20T18:04:01.629Z,7.87
2019-04-20T18:06:30.373Z,8.00
2019-04-20T18:09:59.033Z,8.03
2019-04-20T18:12:20.831Z,7.00
2019-04-20T18:18:02.484Z,8.50
2019-04-20T18:23:27.364Z,6.27
2019-04-20T18:27:05.527Z,8.20
2019-04-20T18:29:40.964Z,7.53
2019-04-20T18:32:33.482Z,9.83
2019-04-20T18:35:20.309Z,8.90
2019-04-20T18:38:23.926Z,8.47
2019-04-20T18:41:02.693Z,7.77
2019-04-20T18:46:54.511Z,8.20
2019-04-20T18:49:18.635Z,7.40
2019-04-20T18:51:41.480Z,10.03
2019-04-20T18:57:31.176Z,11.63
2019-04-20T19:00:48.008Z,8.43
2019-04-20T19:03:29.223Z,7.67
2019-04-20T19:06:02.194Z,7.80
2019-04-20T19:08:46.338Z,8.90
2019-04-20T19:11:55.867Z,12.73
2019-04-20T19:14:35.610Z,11.73
2019-04-20T19:24:41.636Z,10.07
2019-04-20T19:27:15.737Z,11.43
2019-04-20T19:33:02.168Z,11.33
2019-04-20T19:38:41.789Z,11.93
2019-04-20T19:41:07.541Z,14.67
2019-04-20T19:43:52.826Z,13.17
2019-04-20T19:47:03.312Z,14.70
2019-04-20T19:49:18.373Z,14.70
2019-04-20T19:52:12.132Z,16.50
2019-04-20T19:54:34.103Z,14.40
2019-04-20T19:57:10.463Z,14.13
2019-04-20T19:59:41.302Z,16.23
2019-04-20T20:03:03.585Z,13.93
2019-04-20T20:05:44.881Z,13.10
2019-04-20T20:08:18.009Z,13.23
2019-04-20T20:14:57.421Z,12.57
2019-04-20T20:18:03.655Z,10.43
2019-04-20T20:20:38.146Z,12.27
2019-04-20T20:23:20.313Z,12.77
2019-04-20T20:25:30.781Z,10.77
2019-04-20T20:28:36.062Z,9.00
2019-04-20T20:31:06.048Z,10.27
2019-04-20T20:36:29.198Z,12.87
2019-04-20T20:39:36.626Z,9.97
2019-04-20T20:42:21.879Z,9.67
2019-04-20T20:45:31.489Z,9.63
2019-04-20T20:48:09.546Z,11.23
2019-04-20T20:50:51.834Z,9.43
2019-04-20T20:53:10.269Z,13.73
2019-04-20T20:55:38.255Z,10.73
2019-04-20T20:58:43.884Z,10.73
2019-04-20T21:01:12.898Z,12.23
2019-04-20T21:03:41.976Z,12.10
2019-04-20T21:06:09.685Z,8.30
2019-04-20T21:08:48.731Z,9.90
2019-04-20T21:11:23.546Z,8.67
2019-04-20T21:18:41.072Z,8.90
2019-04-20T21:21:15.035Z,9.60
2019-04-20T21:26:28.027Z,9.33
2019-04-20T21:31:55.635Z,8.57
2019-04-20T21:37:30.710Z,9.90
2019-04-20T21:43:00.694Z,10.67
2019-04-20T21:45:33.892Z,8.27
2019-04-20T21:48:03.468Z,9.23
2019-04-20T21:50:54.597Z,10.40
2019-04-20T21:53:59.890Z,8.27
2019-04-20T21:56:30.983Z,9.20
2019-04-20T21:59:04.715Z,8.47
2019-04-20T22:01:46.367Z,10.93
2019-04-20T22:04:18.228Z,7.50
2019-04-20T22:07:34.529Z,9.20
2019-04-20T22:10:13.995Z,9.63
2019-04-20T22:12:47.644Z,11.23
2019-04-20T22:15:30.010Z,9.93
2019-04-20T22:17:59.203Z,10.80
2019-04-20T22:20:37.099Z,8.87
2019-04-20T22:23:15.792Z,9.40
2019-04-20T22:25:55.198Z,8.73
2019-04-20T22:28:13.949Z,8.13
2019-04-20T22:30:53.896Z,8.37
2019-04-20T22:33:42.750Z,9.73
2019-04-20T22:36:24.093Z,11.20
2019-04-20T22:39:48.657Z,9.43
2019-04-20T22:42:18.700Z,9.37
2019-04-20T22:44:56.608Z,11.07
2019-04-20T22:47:28.895Z,10.33
2019-04-20T22:50:16.490Z,10.70
2019-04-20T22:53:33.398Z,8.50
2019-04-20T22:56:13.005Z,8.63
2019-04-20T22:58:45.538Z,9.87
2019-04-20T23:01:14.435Z,8.43
2019-04-20T23:03:38.861Z,9.33
2019-04-20T23:06:56.979Z,8.73
2019-04-20T23:09:38.182Z,11.63
2019-04-20T23:12:10.075Z,9.67
2019-04-20T23:14:42.355Z,9.97
2019-04-20T23:17:12.451Z,8.90
2019-04-20T23:22:56.887Z,12.77
2019-04-20T23:25:29.181Z,10.13
2019-04-20T23:28:11.386Z,10.80
2019-04-20T23:30:43.993Z,9.40
2019-04-20T23:33:20.163Z,7.67
2019-04-20T23:35:58.242Z,11.50
2019-04-20T23:39:06.969Z,8.70
2019-04-20T23:41:42.573Z,9.40
2019-04-20T23:47:43.525Z,9.83
2019-04-20T23:53:24.666Z,9.50
2019-04-20T23:58:40.635Z,8.97
